createdAt,value
2023-04-29T00:02:20.810Z,14.14
2023-04-29T00:05:22.735Z,14.16
2023-04-29T00:08:24.872Z,14.13
2023-04-29T00:11:26.494Z,14.16
2023-04-29T00:14:28.139Z,14.21
2023-04-29T00:17:29.820Z,14.23
2023-04-29T00:20:31.644Z,14.23
2023-04-29T00:23:33.817Z,14.24
2023-04-29T00:26:35.439Z,14.20
2023-04-29T00:29:37.144Z,14.11
2023-04-29T00:32:39.130Z,14.16
2023-04-29T00:35:40.808Z,14.19
2023-04-29T00:38:42.449Z,14.22
2023-04-29T00:41:44.116Z,14.24
2023-04-29T00:44:45.787Z,14.24
2023-04-29T00:47:47.706Z,14.15
2023-04-29T00:50:49.402Z,14.16
2023-04-29T00:53:50.952Z,14.16
2023-04-29T00:56:52.650Z,14.03
2023-04-29T00:59:54.652Z,13.99
2023-04-29T01:02:57.205Z,13.97
2023-04-29T01:06:22.160Z,13.92
2023-04-29T01:09:46.346Z,13.85
2023-04-29T01:13:09.683Z,13.63
2023-04-29T01:16:13.253Z,13.51
2023-04-29T01:19:39.749Z,13.55
2023-04-29T01:22:41.450Z,13.56
2023-04-29T01:25:43.125Z,13.59
2023-04-29T01:28:51.144Z,13.61
2023-04-29T01:32:03.057Z,13.46
2023-04-29T01:35:08.619Z,13.50
2023-04-29T01:38:22.743Z,13.56
2023-04-29T01:41:31.667Z,13.59
2023-04-29T01:44:41.759Z,13.62
2023-04-29T01:47:43.569Z,13.70
2023-04-29T01:50:45.317Z,13.68
2023-04-29T01:53:48.733Z,13.59
2023-04-29T01:56:50.400Z,13.38
2023-04-29T01:59:59.695Z,13.43
2023-04-29T02:03:20.976Z,13.38
2023-04-29T02:06:26.756Z,13.33
2023-04-29T02:09:32.737Z,13.41
2023-04-29T02:12:41.857Z,13.50
2023-04-29T02:15:43.693Z,13.51
2023-04-29T02:18:45.373Z,13.51
2023-04-29T02:21:47.016Z,13.52
2023-04-29T02:24:48.704Z,13.56
2023-04-29T02:27:50.350Z,13.59
2023-04-29T02:30:52.048Z,13.53
2023-04-29T02:33:53.720Z,13.56
2023-04-29T02:36:55.392Z,13.58
2023-04-29T02:39:56.999Z,13.57
2023-04-29T02:42:58.655Z,13.61
2023-04-29T02:46:03.062Z,13.63
2023-04-29T02:49:04.795Z,13.65
2023-04-29T02:52:06.697Z,13.69
2023-04-29T02:55:09.773Z,13.71
2023-04-29T02:58:11.458Z,13.72
2023-04-29T03:01:13.179Z,13.70
2023-04-29T03:04:15.248Z,13.71
2023-04-29T03:07:17.209Z,13.71
2023-04-29T03:10:18.881Z,13.74
2023-04-29T03:13:21.312Z,13.67
2023-04-29T03:16:23.120Z,13.74
2023-04-29T03:19:24.833Z,13.72
2023-04-29T03:22:26.590Z,13.73
2023-04-29T03:25:28.280Z,13.73
2023-04-29T03:28:30.682Z,13.67
2023-04-29T03:31:32.409Z,13.70
2023-04-29T03:34:34.032Z,13.69
2023-04-29T03:37:51.164Z,13.67
2023-04-29T03:41:03.747Z,13.67
2023-04-29T03:44:06.352Z,13.65
2023-04-29T03:47:08.035Z,13.66
2023-04-29T03:50:10.149Z,13.59
2023-04-29T03:53:12.644Z,13.55
2023-04-29T03:56:14.841Z,13.64
2023-04-29T03:59:17.543Z,13.60
2023-04-29T04:02:19.767Z,13.61
2023-04-29T04:05:21.652Z,13.51
2023-04-29T04:08:28.425Z,13.52
2023-04-29T04:11:33.467Z,13.48
2023-04-29T04:14:37.946Z,13.48
2023-04-29T04:17:39.717Z,13.44
2023-04-29T04:20:41.921Z,13.43
2023-04-29T04:23:44.655Z,13.37
2023-04-29T04:26:49.785Z,13.32
2023-04-29T04:29:56.625Z,13.34
2023-04-29T04:33:02.973Z,13.38
2023-04-29T04:36:06.064Z,13.39
2023-04-29T04:39:07.717Z,13.31
2023-04-29T04:42:09.569Z,13.36
2023-04-29T04:45:11.415Z,13.38
2023-04-29T04:48:19.362Z,13.33
2023-04-29T04:51:24.424Z,13.39
2023-04-29T04:54:27.131Z,13.30
2023-04-29T04:57:38.632Z,13.31
2023-04-29T05:00:44.425Z,13.33
2023-04-29T05:03:46.641Z,13.33
2023-04-29T05:06:48.605Z,13.36
2023-04-29T05:09:50.481Z,13.39
2023-04-29T05:12:52.268Z,13.45
2023-04-29T05:15:54.664Z,13.47
2023-04-29T05:19:00.642Z,13.50
2023-04-29T05:22:06.393Z,13.56
2023-04-29T05:25:08.433Z,13.59
2023-04-29T05:28:11.222Z,13.63
2023-04-29T05:31:15.688Z,13.68
2023-04-29T05:34:17.696Z,13.74
2023-04-29T05:37:19.366Z,13.79
2023-04-29T05:40:35.925Z,13.89
2023-04-29T05:43:56.229Z,13.98
2023-04-29T05:46:57.979Z,14.07
2023-04-29T05:49:59.717Z,14.11
2023-04-29T05:53:02.441Z,14.17
2023-04-29T05:56:04.385Z,14.21
2023-04-29T05:59:06.067Z,14.23
2023-04-29T06:02:07.839Z,14.13
2023-04-29T06:05:10.967Z,13.98
2023-04-29T06:08:48.159Z,13.84
2023-04-29T06:11:54.051Z,13.85
2023-04-29T06:14:56.060Z,13.95
2023-04-29T06:17:57.890Z,14.16
2023-04-29T06:20:59.634Z,14.29
2023-04-29T06:24:01.343Z,14.34
2023-04-29T06:27:03.022Z,14.37
2023-04-29T06:30:05.044Z,14.27
2023-04-29T06:33:06.740Z,14.22
2023-04-29T06:36:08.443Z,14.27
2023-04-29T06:39:36.191Z,14.44
2023-04-29T06:42:55.802Z,14.62
2023-04-29T06:46:15.833Z,14.62
2023-04-29T06:49:31.953Z,14.77
2023-04-29T06:52:33.941Z,14.98
2023-04-29T06:55:35.601Z,15.13
2023-04-29T06:58:38.148Z,15.24
2023-04-29T07:01:41.228Z,15.27
2023-04-29T07:04:46.269Z,15.33
2023-04-29T07:07:50.820Z,15.17
2023-04-29T07:10:56.896Z,14.79
2023-04-29T07:13:58.768Z,15.04
2023-04-29T07:17:04.560Z,15.17
2023-04-29T07:20:07.012Z,15.30
2023-04-29T07:23:08.772Z,15.48
2023-04-29T07:26:14.580Z,15.56
2023-04-29T07:29:17.916Z,15.76
2023-04-29T07:32:19.657Z,16.01
2023-04-29T07:35:21.339Z,16.15
2023-04-29T07:38:23.006Z,16.25
2023-04-29T07:41:24.708Z,16.39
2023-04-29T07:44:26.390Z,16.65
2023-04-29T07:47:28.082Z,16.65
2023-04-29T07:50:30.108Z,16.96
2023-04-29T07:53:31.876Z,17.23
2023-04-29T07:56:33.551Z,17.41
2023-04-29T07:59:35.347Z,17.45
2023-04-29T08:02:37.711Z,17.63
2023-04-29T08:05:40.117Z,17.80
2023-04-29T08:08:42.436Z,17.92
2023-04-29T08:11:44.169Z,18.01
2023-04-29T08:14:47.915Z,18.03
2023-04-29T08:17:49.701Z,18.06
2023-04-29T08:20:51.391Z,18.08
2023-04-29T08:23:53.213Z,18.14
2023-04-29T08:26:54.846Z,18.22
2023-04-29T08:29:56.463Z,18.31
2023-04-29T08:32:58.144Z,18.37
2023-04-29T08:35:59.893Z,18.34
2023-04-29T08:39:01.639Z,18.24
2023-04-29T08:42:09.994Z,18.13
2023-04-29T08:45:11.633Z,18.26
2023-04-29T08:48:13.386Z,18.51
2023-04-29T08:51:15.060Z,18.70
2023-04-29T08:54:16.677Z,18.81
2023-04-29T08:57:18.309Z,18.75
2023-04-29T09:00:19.998Z,18.94
2023-04-29T09:03:22.202Z,19.11
2023-04-29T09:06:23.900Z,19.24
2023-04-29T09:09:25.571Z,19.20
2023-04-29T09:12:27.237Z,19.03
2023-04-29T09:15:28.887Z,19.16
2023-04-29T09:18:47.819Z,18.99
2023-04-29T09:21:54.599Z,18.93
2023-04-29T09:24:56.228Z,18.86
2023-04-29T09:27:57.914Z,18.80
2023-04-29T09:30:59.568Z,18.72
2023-04-29T09:34:01.185Z,18.36
2023-04-29T09:37:02.827Z,18.35
2023-04-29T09:40:04.887Z,18.35
2023-04-29T09:43:15.056Z,18.36
2023-04-29T09:46:16.978Z,18.47
2023-04-29T09:56:06.299Z,18.15
2023-04-29T09:59:08.197Z,18.21
2023-04-29T10:02:16.928Z,18.22
2023-04-29T10:05:18.618Z,17.96
2023-04-29T10:08:20.297Z,17.67
2023-04-29T10:11:21.998Z,17.63
2023-04-29T10:14:24.425Z,17.51
2023-04-29T10:17:46.601Z,17.39
2023-04-29T10:20:49.380Z,17.17
2023-04-29T10:23:51.028Z,17.20
2023-04-29T10:26:52.711Z,17.33
2023-04-29T10:29:54.997Z,17.56
2023-04-29T10:32:56.656Z,17.80
2023-04-29T10:35:58.336Z,17.98
2023-04-29T10:39:01.043Z,18.11
2023-04-29T10:42:30.680Z,18.37
2023-04-29T10:45:32.659Z,18.64
2023-04-29T10:48:34.632Z,18.89
2023-04-29T10:51:40.230Z,18.85
2023-04-29T10:54:42.541Z,19.04
2023-04-29T10:57:45.224Z,19.09
2023-04-29T11:00:46.893Z,19.23
2023-04-29T11:04:01.738Z,19.35
2023-04-29T11:07:03.570Z,19.56
2023-04-29T11:10:05.562Z,19.55
2023-04-29T11:13:26.202Z,19.57
2023-04-29T11:16:27.895Z,19.58
2023-04-29T11:19:34.074Z,19.58
2023-04-29T11:22:35.730Z,19.52
2023-04-29T11:25:39.527Z,19.37
2023-04-29T11:28:41.912Z,19.28
2023-04-29T11:31:43.595Z,19.11
2023-04-29T11:34:45.265Z,19.15
2023-04-29T11:37:47.018Z,19.13
2023-04-29T11:40:48.957Z,19.13
2023-04-29T11:43:57.831Z,19.12
2023-04-29T11:47:08.897Z,19.04
2023-04-29T11:50:10.751Z,19.12
2023-04-29T11:53:12.389Z,19.10
2023-04-29T11:56:14.070Z,19.11
2023-04-29T11:59:15.693Z,19.10
2023-04-29T12:02:17.390Z,19.10
2023-04-29T12:05:19.481Z,19.13
2023-04-29T12:08:28.188Z,19.01
2023-04-29T12:11:30.236Z,19.03
2023-04-29T12:14:31.885Z,18.93
2023-04-29T12:17:33.549Z,18.99
2023-04-29T12:20:35.204Z,18.95
2023-04-29T12:23:36.844Z,18.74
2023-04-29T12:26:40.084Z,18.69
2023-04-29T12:29:41.729Z,18.70
2023-04-29T12:32:43.432Z,18.71
2023-04-29T12:35:45.142Z,18.69
2023-04-29T12:38:47.424Z,18.70
2023-04-29T12:41:49.088Z,18.74
2023-04-29T12:44:50.762Z,18.70
2023-04-29T12:47:52.474Z,18.73
2023-04-29T12:50:54.142Z,18.75
2023-04-29T12:53:55.850Z,18.67
2023-04-29T12:56:57.534Z,18.65
2023-04-29T12:59:59.353Z,18.41
2023-04-29T13:03:01.141Z,18.33
2023-04-29T13:06:02.908Z,18.33
2023-04-29T13:09:05.010Z,17.74
2023-04-29T13:12:06.640Z,17.59
2023-04-29T13:15:08.817Z,17.51
2023-04-29T13:18:10.597Z,17.74
2023-04-29T13:21:12.233Z,18.10
2023-04-29T13:24:13.857Z,18.38
2023-04-29T13:27:17.444Z,18.60
2023-04-29T13:30:19.089Z,18.92
2023-04-29T13:33:20.879Z,19.42
2023-04-29T13:36:22.572Z,19.91
2023-04-29T13:39:24.180Z,20.29
2023-04-29T13:42:27.143Z,20.52
2023-04-29T13:45:29.279Z,20.51
2023-04-29T13:49:01.703Z,20.69
2023-04-29T13:55:35.938Z,20.92
2023-04-29T14:01:55.178Z,20.76
2023-04-29T14:04:45.080Z,20.75
2023-04-29T14:07:46.758Z,20.58
2023-04-29T14:10:48.332Z,20.38
2023-04-29T14:13:50.001Z,20.16
2023-04-29T15:03:22.838Z,22.89
2023-04-29T15:06:24.868Z,23.05
2023-04-29T15:09:28.132Z,23.14
2023-04-29T15:12:29.781Z,23.10
2023-04-29T15:15:31.466Z,23.00
2023-04-29T15:18:33.140Z,22.73
2023-04-29T15:21:35.256Z,22.44
2023-04-29T15:24:37.011Z,22.24
2023-04-29T15:27:38.660Z,21.86
2023-04-29T15:30:40.450Z,21.58
2023-04-29T15:33:42.121Z,20.76
2023-04-29T15:36:43.707Z,19.89
2023-04-29T15:39:45.394Z,19.57
2023-04-29T15:42:47.049Z,19.53
2023-04-29T15:45:48.780Z,19.43
2023-04-29T15:48:50.526Z,19.06
2023-04-29T15:51:52.152Z,18.99
2023-04-29T15:54:53.784Z,18.77
2023-04-29T15:57:55.458Z,18.67
2023-04-29T16:00:57.116Z,18.56
2023-04-29T16:03:58.841Z,18.36
2023-04-29T16:07:00.541Z,18.15
2023-04-29T16:10:02.206Z,18.14
2023-04-29T16:13:03.834Z,18.21
2023-04-29T16:16:05.550Z,18.32
2023-04-29T16:19:07.188Z,18.41
2023-04-29T16:22:08.813Z,18.52
2023-04-29T16:25:10.469Z,18.62
2023-04-29T16:28:12.090Z,19.51
2023-04-29T16:31:13.757Z,20.79
2023-04-29T16:34:15.444Z,22.17
2023-04-29T16:37:17.078Z,22.63
2023-04-29T16:40:19.056Z,22.67
2023-04-29T16:43:20.697Z,22.43
2023-04-29T16:46:22.414Z,22.09
2023-04-29T16:49:25.039Z,21.72
2023-04-29T16:52:26.671Z,21.27
2023-04-29T16:55:31.094Z,20.94
2023-04-29T16:58:32.759Z,20.76
2023-04-29T17:01:34.359Z,20.62
2023-04-29T17:04:36.111Z,20.44
2023-04-29T17:07:37.868Z,20.12
2023-04-29T17:10:39.587Z,19.91
2023-04-29T17:13:41.206Z,19.87
2023-04-29T17:16:42.890Z,19.72
2023-04-29T17:19:44.519Z,19.58
2023-04-29T17:22:46.351Z,19.45
2023-04-29T17:25:48.044Z,19.22
2023-04-29T17:28:49.701Z,19.22
2023-04-29T17:31:51.475Z,19.17
2023-04-29T17:34:53.413Z,19.07
2023-04-29T17:37:55.076Z,18.82
2023-04-29T17:40:57.043Z,18.71
2023-04-29T17:43:58.673Z,18.64
2023-04-29T17:47:00.689Z,18.67
2023-04-29T17:50:03.057Z,18.65
2023-04-29T17:53:04.845Z,18.21
2023-04-29T17:56:06.867Z,17.54
2023-04-29T17:59:08.553Z,16.97
2023-04-29T18:02:10.314Z,16.87
2023-04-29T18:05:11.945Z,16.93
2023-04-29T18:08:14.083Z,16.74
2023-04-29T18:11:16.004Z,16.61
2023-04-29T18:14:17.800Z,16.57
2023-04-29T18:17:19.643Z,16.39
2023-04-29T18:20:21.351Z,16.22
2023-04-29T18:23:22.993Z,16.01
2023-04-29T18:26:24.755Z,16.11
2023-04-29T18:29:26.628Z,16.11
2023-04-29T18:32:28.290Z,16.01
2023-04-29T18:35:30.102Z,15.99
2023-04-29T18:38:31.726Z,16.01
2023-04-29T18:41:33.662Z,15.94
2023-04-29T18:44:35.433Z,15.70
2023-04-29T18:47:37.283Z,15.60
2023-04-29T18:50:39.057Z,15.60
2023-04-29T18:53:41.930Z,15.62
2023-04-29T18:56:47.653Z,15.61
2023-04-29T18:59:49.290Z,15.59
2023-04-29T19:02:51.044Z,15.56
2023-04-29T19:05:53.070Z,15.41
2023-04-29T19:08:55.677Z,15.28
2023-04-29T19:11:59.004Z,14.98
2023-04-29T19:15:01.289Z,14.92
2023-04-29T19:18:03.229Z,14.98
2023-04-29T19:21:04.945Z,14.89
2023-04-29T19:24:07.112Z,14.84
2023-04-29T19:27:09.802Z,14.92
2023-04-29T19:30:12.269Z,15.06
2023-04-29T19:33:14.077Z,14.91
2023-04-29T19:36:16.005Z,14.93
2023-04-29T19:39:19.810Z,14.92
2023-04-29T19:42:21.935Z,14.66
2023-04-29T19:45:23.924Z,14.45
2023-04-29T19:48:26.056Z,14.21
2023-04-29T19:51:28.045Z,14.15
2023-04-29T19:54:29.796Z,14.08
2023-04-29T19:57:31.412Z,14.29
2023-04-29T20:00:33.567Z,14.03
2023-04-29T20:03:35.762Z,13.93
2023-04-29T20:06:37.808Z,13.78
2023-04-29T20:09:39.848Z,13.51
2023-04-29T20:12:41.627Z,13.42
2023-04-29T20:15:43.780Z,13.93
2023-04-29T20:18:45.624Z,13.86
2023-04-29T20:21:47.368Z,13.51
2023-04-29T20:24:49.437Z,13.27
2023-04-29T20:27:51.457Z,13.35
2023-04-29T20:30:53.139Z,13.23
2023-04-29T20:33:55.166Z,13.47
2023-04-29T20:36:57.088Z,13.52
2023-04-29T20:39:58.812Z,13.35
2023-04-29T20:43:00.770Z,13.53
2023-04-29T20:46:02.541Z,13.61
2023-04-29T20:49:04.230Z,13.29
2023-04-29T20:52:05.828Z,13.02
2023-04-29T20:55:07.540Z,12.97
2023-04-29T20:58:09.261Z,12.89
2023-04-29T21:01:10.931Z,13.25
2023-04-29T21:04:12.602Z,13.14
2023-04-29T21:07:14.269Z,13.10
2023-04-29T21:10:15.901Z,13.33
2023-04-29T21:13:17.543Z,13.49
2023-04-29T21:16:19.324Z,13.62
2023-04-29T21:19:21.071Z,13.73
2023-04-29T21:22:22.754Z,13.51
2023-04-29T21:25:24.398Z,13.49
2023-04-29T21:28:26.077Z,13.38
2023-04-29T21:31:27.760Z,13.42
2023-04-29T21:34:29.469Z,13.35
2023-04-29T21:37:32.114Z,13.23
2023-04-29T21:40:33.748Z,13.41
2023-04-29T21:43:35.465Z,13.24
2023-04-29T21:46:37.249Z,13.01
2023-04-29T21:49:38.953Z,13.12
2023-04-29T21:52:40.594Z,13.23
2023-04-29T21:55:42.214Z,13.22
2023-04-29T21:58:44.357Z,12.91
2023-04-29T22:01:46.062Z,12.80
2023-04-29T22:04:49.582Z,12.83
2023-04-29T22:07:51.247Z,13.11
2023-04-29T22:10:52.917Z,12.91
2023-04-29T22:13:54.591Z,12.94
2023-04-29T22:16:56.246Z,13.32
2023-04-29T22:19:57.903Z,13.14
2023-04-29T22:22:59.524Z,13.04
2023-04-29T22:26:01.164Z,13.02
2023-04-29T22:29:02.822Z,13.11
2023-04-29T22:32:04.891Z,13.23
2023-04-29T22:35:06.785Z,12.93
2023-04-29T22:38:08.428Z,13.11
2023-04-29T22:41:10.083Z,13.03
2023-04-29T22:44:11.716Z,12.83
2023-04-29T22:47:13.302Z,12.64
2023-04-29T22:50:14.950Z,12.53
2023-04-29T22:53:16.602Z,12.29
2023-04-29T22:56:18.251Z,12.38
2023-04-29T22:59:19.867Z,12.31
2023-04-29T23:02:22.496Z,12.46
2023-04-29T23:05:24.169Z,12.40
2023-04-29T23:08:26.426Z,12.29
2023-04-29T23:11:28.028Z,12.41
2023-04-29T23:14:29.678Z,12.16
2023-04-29T23:17:31.426Z,11.97
2023-04-29T23:20:33.079Z,12.23
2023-04-29T23:23:34.777Z,12.24
2023-04-29T23:26:36.399Z,12.32
2023-04-29T23:29:38.008Z,11.92
2023-04-29T23:32:39.697Z,11.93
2023-04-29T23:35:41.370Z,11.97
2023-04-29T23:38:43.002Z,11.87
2023-04-29T23:41:44.680Z,11.78
2023-04-29T23:44:46.336Z,11.57
2023-04-29T23:47:47.988Z,11.27
2023-04-29T23:50:49.657Z,11.22
2023-04-29T23:53:51.352Z,11.19
2023-04-29T23:56:53.003Z,11.16
2023-04-29T23:59:54.842Z,11.00
